sensor_id;sensor_type;location;lat;lon;timestamp;pressure;altitude;pressure_sealevel;temperature;humidity
25156;BME280;71253;51.496;7.606;2024-01-15T00:00:07;98775.00;;;-0.81;100.00
25156;BME280;71253;51.496;7.606;2024-01-15T00:05:11;98774.13;;;-0.81;100.00
25156;BME280;71253;51.496;7.606;2024-01-15T00:10:13;98769.13;;;-0.78;100.00
25156;BME280;71253;51.496;7.606;2024-01-15T00:15:15;98763.22;;;-0.77;100.00
25156;BME280;71253;51.496;7.606;2024-01-15T00:20:16;98757.28;;;-0.77;100.00
25156;BME280;71253;51.496;7.606;2024-01-15T00:25:18;98750.50;;;-0.77;100.00
25156;BME280;71253;51.496;7.606;2024-01-15T00:30:19;98749.66;;;-0.77;100.00
25156;BME280;71253;51.496;7.606;2024-01-15T00:35:21;98751.44;;;-0.75;100.00
25156;BME280;71253;51.496;7.606;2024-01-15T00:40:22;98741.28;;;-0.75;100.00
25156;BME280;71253;51.496;7.606;2024-01-15T00:45:24;98747.19;;;-0.74;100.00
25156;BME280;71253;51.496;7.606;2024-01-15T00:50:25;98742.16;;;-0.73;100.00
25156;BME280;71253;51.496;7.606;2024-01-15T00:55:28;98742.25;;;-0.70;100.00
25156;BME280;71253;51.496;7.606;2024-01-15T01:00:30;98745.63;;;-0.69;100.00
25156;BME280;71253;51.496;7.606;2024-01-15T01:05:32;98727.06;;;-0.67;100.00
25156;BME280;71253;51.496;7.606;2024-01-15T01:10:34;98741.53;;;-0.64;100.00
25156;BME280;71253;51.496;7.606;2024-01-15T01:15:36;98735.53;;;-0.66;100.00
25156;BME280;71253;51.496;7.606;2024-01-15T01:20:37;98740.59;;;-0.66;100.00
25156;BME280;71253;51.496;7.606;2024-01-15T01:25:39;98728.75;;;-0.67;100.00
25156;BME280;71253;51.496;7.606;2024-01-15T01:30:40;98750.84;;;-0.65;100.00
25156;BME280;71253;51.496;7.606;2024-01-15T01:35:42;98753.44;;;-0.62;100.00
25156;BME280;71253;51.496;7.606;2024-01-15T01:40:44;98731.31;;;-0.66;100.00
25156;BME280;71253;51.496;7.606;2024-01-15T01:45:45;98723.69;;;-0.66;100.00
25156;BME280;71253;51.496;7.606;2024-01-15T01:50:47;98717.72;;;-0.68;100.00
25156;BME280;71253;51.496;7.606;2024-01-15T01:55:49;98724.47;;;-0.70;100.00
25156;BME280;71253;51.496;7.606;2024-01-15T02:00:51;98715.19;;;-0.68;100.00
25156;BME280;71253;51.496;7.606;2024-01-15T02:05:53;98715.97;;;-0.70;100.00
25156;BME280;71253;51.496;7.606;2024-01-15T02:10:55;98723.63;;;-0.69;100.00
25156;BME280;71253;51.496;7.606;2024-01-15T02:15:56;98728.84;;;-0.63;100.00
25156;BME280;71253;51.496;7.606;2024-01-15T02:20:58;98728.03;;;-0.62;100.00
25156;BME280;71253;51.496;7.606;2024-01-15T02:26:00;98725.50;;;-0.60;100.00
25156;BME280;71253;51.496;7.606;2024-01-15T02:31:02;98723.03;;;-0.59;100.00
25156;BME280;71253;51.496;7.606;2024-01-15T02:36:04;98726.31;;;-0.63;100.00
25156;BME280;71253;51.496;7.606;2024-01-15T02:41:06;98726.41;;;-0.60;100.00
25156;BME280;71253;51.496;7.606;2024-01-15T02:46:07;98737.44;;;-0.58;100.00
25156;BME280;71253;51.496;7.606;2024-01-15T02:51:10;98728.16;;;-0.56;100.00
25156;BME280;71253;51.496;7.606;2024-01-15T02:56:11;98723.91;;;-0.57;100.00
25156;BME280;71253;51.496;7.606;2024-01-15T03:01:13;98722.19;;;-0.58;100.00
25156;BME280;71253;51.496;7.606;2024-01-15T03:06:14;98722.25;;;-0.55;100.00
25156;BME280;71253;51.496;7.606;2024-01-15T03:11:16;98718.81;;;-0.57;100.00
25156;BME280;71253;51.496;7.606;2024-01-15T03:16:18;98736.63;;;-0.57;100.00
25156;BME280;71253;51.496;7.606;2024-01-15T03:21:19;98723.91;;;-0.57;100.00
25156;BME280;71253;51.496;7.606;2024-01-15T03:26:21;98727.31;;;-0.56;100.00
25156;BME280;71253;51.496;7.606;2024-01-15T03:31:22;98730.69;;;-0.56;100.00
25156;BME280;71253;51.496;7.606;2024-01-15T03:36:24;98730.66;;;-0.59;100.00
25156;BME280;71253;51.496;7.606;2024-01-15T03:41:25;98718.81;;;-0.57;100.00
25156;BME280;71253;51.496;7.606;2024-01-15T03:46:27;98729.84;;;-0.56;100.00
25156;BME280;71253;51.496;7.606;2024-01-15T03:51:29;98723.94;;;-0.55;100.00
25156;BME280;71253;51.496;7.606;2024-01-15T03:56:30;98718.00;;;-0.56;100.00
25156;BME280;71253;51.496;7.606;2024-01-15T04:01:32;98711.22;;;-0.55;100.00
25156;BME280;71253;51.496;7.606;2024-01-15T04:06:33;98716.41;;;-0.52;100.00
25156;BME280;71253;51.496;7.606;2024-01-15T04:11:35;98706.25;;;-0.50;100.00
25156;BME280;71253;51.496;7.606;2024-01-15T04:16:37;98698.63;;;-0.50;100.00
25156;BME280;71253;51.496;7.606;2024-01-15T04:21:39;98684.31;;;-0.47;100.00
25156;BME280;71253;51.496;7.606;2024-01-15T04:26:40;98679.28;;;-0.44;100.00
25156;BME280;71253;51.496;7.606;2024-01-15T04:31:42;98677.59;;;-0.45;100.00
25156;BME280;71253;51.496;7.606;2024-01-15T04:36:43;98664.00;;;-0.47;100.00
25156;BME280;71253;51.496;7.606;2024-01-15T04:41:45;98668.28;;;-0.44;100.00
25156;BME280;71253;51.496;7.606;2024-01-15T04:46:46;98673.44;;;-0.41;100.00
25156;BME280;71253;51.496;7.606;2024-01-15T04:51:48;98668.34;;;-0.41;100.00
25156;BME280;71253;51.496;7.606;2024-01-15T04:56:50;98659.13;;;-0.38;100.00
25156;BME280;71253;51.496;7.606;2024-01-15T05:01:51;98648.97;;;-0.38;100.00
25156;BME280;71253;51.496;7.606;2024-01-15T05:06:53;98657.44;;;-0.37;100.00
25156;BME280;71253;51.496;7.606;2024-01-15T05:11:55;98647.28;;;-0.36;100.00
25156;BME280;71253;51.496;7.606;2024-01-15T05:16:56;98649.91;;;-0.33;100.00
25156;BME280;71253;51.496;7.606;2024-01-15T05:21:58;98650.72;;;-0.34;100.00
25156;BME280;71253;51.496;7.606;2024-01-15T05:26:59;98644.78;;;-0.34;100.00
25156;BME280;71253;51.496;7.606;2024-01-15T05:32:01;98646.53;;;-0.32;100.00
25156;BME280;71253;51.496;7.606;2024-01-15T05:37:03;98651.69;;;-0.29;100.00
25156;BME280;71253;51.496;7.606;2024-01-15T05:42:04;98645.75;;;-0.29;100.00
25156;BME280;71253;51.496;7.606;2024-01-15T05:47:07;98644.88;;;-0.30;100.00
25156;BME280;71253;51.496;7.606;2024-01-15T05:52:08;98640.72;;;-0.26;100.00
25156;BME280;71253;51.496;7.606;2024-01-15T05:57:10;98638.19;;;-0.26;100.00
25156;BME280;71253;51.496;7.606;2024-01-15T06:02:12;98629.72;;;-0.27;100.00
25156;BME280;71253;51.496;7.606;2024-01-15T06:07:13;98628.81;;;-0.29;100.00
25156;BME280;71253;51.496;7.606;2024-01-15T06:12:15;98630.59;;;-0.24;100.00
25156;BME280;71253;51.496;7.606;2024-01-15T06:17:16;98622.09;;;-0.27;100.00
25156;BME280;71253;51.496;7.606;2024-01-15T06:22:18;98620.28;;;-0.31;100.00
25156;BME280;71253;51.496;7.606;2024-01-15T06:27:20;98618.59;;;-0.32;100.00
25156;BME280;71253;51.496;7.606;2024-01-15T06:32:21;98616.91;;;-0.31;100.00
25156;BME280;71253;51.496;7.606;2024-01-15T06:37:23;98610.91;;;-0.33;100.00
25156;BME280;71253;51.496;7.606;2024-01-15T06:42:29;98615.00;;;-0.41;100.00
25156;BME280;71253;51.496;7.606;2024-01-15T06:47:30;98615.00;;;-0.41;100.00
25156;BME280;71253;51.496;7.606;2024-01-15T06:52:32;98610.78;;;-0.39;100.00
25156;BME280;71253;51.496;7.606;2024-01-15T06:57:34;98610.88;;;-0.36;100.00
25156;BME280;71253;51.496;7.606;2024-01-15T07:02:35;98621.06;;;-0.33;100.00
25156;BME280;71253;51.496;7.606;2024-01-15T07:07:37;98627.91;;;-0.31;100.00
25156;BME280;71253;51.496;7.606;2024-01-15T07:12:38;98631.28;;;-0.32;100.00
25156;BME280;71253;51.496;7.606;2024-01-15T07:17:40;98621.13;;;-0.32;100.00
25156;BME280;71253;51.496;7.606;2024-01-15T07:22:42;98612.69;;;-0.29;100.00
25156;BME280;71253;51.496;7.606;2024-01-15T07:27:43;98620.41;;;-0.24;100.00
25156;BME280;71253;51.496;7.606;2024-01-15T07:32:45;98615.31;;;-0.26;100.00
25156;BME280;71253;51.496;7.606;2024-01-15T07:37:46;98617.78;;;-0.28;100.00
25156;BME280;71253;51.496;7.606;2024-01-15T07:42:48;98617.00;;;-0.27;100.00
25156;BME280;71253;51.496;7.606;2024-01-15T07:47:49;98620.34;;;-0.28;100.00
25156;BME280;71253;51.496;7.606;2024-01-15T07:52:51;98629.72;;;-0.27;100.00
25156;BME280;71253;51.496;7.606;2024-01-15T07:57:53;98618.72;;;-0.24;100.00
25156;BME280;71253;51.496;7.606;2024-01-15T08:02:56;98622.16;;;-0.22;100.00
25156;BME280;71253;51.496;7.606;2024-01-15T08:07:58;98618.06;;;-0.15;100.00
25156;BME280;71253;51.496;7.606;2024-01-15T08:12:59;98628.25;;;-0.14;100.00
25156;BME280;71253;51.496;7.606;2024-01-15T08:18:01;98613.84;;;-0.13;100.00
25156;BME280;71253;51.496;7.606;2024-01-15T08:23:03;98601.00;;;-0.21;100.00
25156;BME280;71253;51.496;7.606;2024-01-15T08:28:05;98603.38;;;-0.29;100.00
25156;BME280;71253;51.496;7.606;2024-01-15T08:33:07;98603.34;;;-0.32;100.00
25156;BME280;71253;51.496;7.606;2024-01-15T08:38:08;98603.28;;;-0.33;100.00
25156;BME280;71253;51.496;7.606;2024-01-15T08:43:10;98606.63;;;-0.37;100.00
25156;BME280;71253;51.496;7.606;2024-01-15T08:48:11;98598.91;;;-0.40;100.00
25156;BME280;71253;51.496;7.606;2024-01-15T08:53:13;98616.56;;;-0.48;100.00
25156;BME280;71253;51.496;7.606;2024-01-15T08:58:15;98618.09;;;-0.55;100.00
25156;BME280;71253;51.496;7.606;2024-01-15T09:03:17;98618.97;;;-0.54;100.00
25156;BME280;71253;51.496;7.606;2024-01-15T09:08:18;98620.56;;;-0.58;100.00
25156;BME280;71253;51.496;7.606;2024-01-15T09:13:20;98626.63;;;-0.52;100.00
25156;BME280;71253;51.496;7.606;2024-01-15T09:18:21;98629.19;;;-0.49;100.00
25156;BME280;71253;51.496;7.606;2024-01-15T09:23:23;98640.31;;;-0.46;100.00
25156;BME280;71253;51.496;7.606;2024-01-15T09:28:24;98638.63;;;-0.45;100.00
25156;BME280;71253;51.496;7.606;2024-01-15T09:33:26;98623.44;;;-0.42;100.00
25156;BME280;71253;51.496;7.606;2024-01-15T09:38:28;98626.88;;;-0.39;100.00
25156;BME280;71253;51.496;7.606;2024-01-15T09:43:29;98622.72;;;-0.37;100.00
25156;BME280;71253;51.496;7.606;2024-01-15T09:48:31;98632.78;;;-0.41;100.00
25156;BME280;71253;51.496;7.606;2024-01-15T09:53:33;98631.06;;;-0.42;100.00
25156;BME280;71253;51.496;7.606;2024-01-15T09:58:35;98634.44;;;-0.43;100.00
25156;BME280;71253;51.496;7.606;2024-01-15T10:03:39;98651.31;;;-0.45;100.00
25156;BME280;71253;51.496;7.606;2024-01-15T10:08:41;98643.78;;;-0.42;100.00
25156;BME280;71253;51.496;7.606;2024-01-15T10:13:43;98636.16;;;-0.42;100.00
25156;BME280;71253;51.496;7.606;2024-01-15T10:18:46;98633.75;;;-0.35;100.00
25156;BME280;71253;51.496;7.606;2024-01-15T10:23:47;98621.25;;;-0.25;100.00
25156;BME280;71253;51.496;7.606;2024-01-15T10:28:50;98626.22;;;-0.30;100.00
25156;BME280;71253;51.496;7.606;2024-01-15T10:33:52;98620.28;;;-0.32;100.00
25156;BME280;71253;51.496;7.606;2024-01-15T10:38:57;98616.06;;;-0.30;100.00
25156;BME280;71253;51.496;7.606;2024-01-15T10:43:59;98615.22;;;-0.29;100.00
25156;BME280;71253;51.496;7.606;2024-01-15T10:49:00;98616.38;;;-0.15;100.00
25156;BME280;71253;51.496;7.606;2024-01-15T10:54:02;98623.91;;;-0.19;100.00
25156;BME280;71253;51.496;7.606;2024-01-15T10:59:04;98622.00;;;-0.30;100.00
25156;BME280;71253;51.496;7.606;2024-01-15T11:04:06;98616.16;;;-0.25;100.00
25156;BME280;71253;51.496;7.606;2024-01-15T11:09:08;98630.69;;;-0.20;100.00
25156;BME280;71253;51.496;7.606;2024-01-15T11:14:10;98635.81;;;-0.17;100.00
25156;BME280;71253;51.496;7.606;2024-01-15T11:19:12;98622.34;;;-0.13;100.00
25156;BME280;71253;51.496;7.606;2024-01-15T11:24:33;98631.25;;;0.11;100.00
25156;BME280;71253;51.496;7.606;2024-01-15T11:29:36;98618.59;;;0.12;100.00
25156;BME280;71253;51.496;7.606;2024-01-15T11:34:56;98617.75;;;0.12;100.00
25156;BME280;71253;51.496;7.606;2024-01-15T11:40:02;98619.47;;;0.14;100.00
25156;BME280;71253;51.496;7.606;2024-01-15T11:45:04;98623.25;;;0.36;100.00
25156;BME280;71253;51.496;7.606;2024-01-15T11:50:06;98610.22;;;0.18;100.00
25156;BME280;71253;51.496;7.606;2024-01-15T11:55:26;98613.72;;;0.23;100.00
25156;BME280;71253;51.496;7.606;2024-01-15T12:00:29;98604.50;;;0.30;100.00
25156;BME280;71253;51.496;7.606;2024-01-15T12:05:30;98615.41;;;0.22;100.00
25156;BME280;71253;51.496;7.606;2024-01-15T12:10:32;98616.94;;;0.14;100.00
25156;BME280;71253;51.496;7.606;2024-01-15T12:15:34;98619.19;;;-0.01;100.00
25156;BME280;71253;51.496;7.606;2024-01-15T12:20:35;98615.75;;;-0.03;100.00
25156;BME280;71253;51.496;7.606;2024-01-15T12:25:37;98615.75;;;-0.05;100.00
25156;BME280;71253;51.496;7.606;2024-01-15T12:30:39;98622.63;;;0.01;100.00
25156;BME280;71253;51.496;7.606;2024-01-15T12:35:41;98626.03;;;0.03;100.00
25156;BME280;71253;51.496;7.606;2024-01-15T12:40:43;98607.47;;;0.07;100.00
25156;BME280;71253;51.496;7.606;2024-01-15T12:45:46;98619.38;;;0.10;100.00
25156;BME280;71253;51.496;7.606;2024-01-15T12:50:48;98627.88;;;0.10;100.00
25156;BME280;71253;51.496;7.606;2024-01-15T12:55:49;98617.88;;;0.19;100.00
25156;BME280;71253;51.496;7.606;2024-01-15T13:00:51;98627.19;;;0.17;100.00
25156;BME280;71253;51.496;7.606;2024-01-15T13:05:52;98631.31;;;0.12;100.00
25156;BME280;71253;51.496;7.606;2024-01-15T13:10:54;98642.28;;;0.10;100.00
25156;BME280;71253;51.496;7.606;2024-01-15T13:15:56;98654.03;;;0.05;100.00
25156;BME280;71253;51.496;7.606;2024-01-15T13:20:57;98652.44;;;0.10;100.00
25156;BME280;71253;51.496;7.606;2024-01-15T13:25:59;98640.69;;;0.15;100.00
25156;BME280;71253;51.496;7.606;2024-01-15T13:31:01;98632.25;;;0.17;100.00
25156;BME280;71253;51.496;7.606;2024-01-15T13:36:02;98640.75;;;0.19;100.00
25156;BME280;71253;51.496;7.606;2024-01-15T13:41:04;98654.16;;;0.11;100.00
25156;BME280;71253;51.496;7.606;2024-01-15T13:46:06;98648.06;;;0.03;100.00
25156;BME280;71253;51.496;7.606;2024-01-15T13:51:08;98663.34;;;0.03;100.00
25156;BME280;71253;51.496;7.606;2024-01-15T13:56:09;98666.81;;;0.06;100.00
25156;BME280;71253;51.496;7.606;2024-01-15T14:01:11;98670.38;;;0.16;100.00
25156;BME280;71253;51.496;7.606;2024-01-15T14:06:12;98659.53;;;0.24;100.00
25156;BME280;71253;51.496;7.606;2024-01-15T14:11:14;98671.28;;;0.18;100.00
25156;BME280;71253;51.496;7.606;2024-01-15T14:16:15;98675.53;;;0.20;100.00
25156;BME280;71253;51.496;7.606;2024-01-15T14:21:18;98683.78;;;0.07;100.00
25156;BME280;71253;51.496;7.606;2024-01-15T14:26:20;98677.00;;;0.08;100.00
25156;BME280;71253;51.496;7.606;2024-01-15T14:31:21;98680.41;;;0.10;100.00
25156;BME280;71253;51.496;7.606;2024-01-15T14:36:23;98694.00;;;0.10;100.00
25156;BME280;71253;51.496;7.606;2024-01-15T14:41:25;98721.91;;;0.06;100.00
25156;BME280;71253;51.496;7.606;2024-01-15T14:46:26;98727.88;;;0.08;100.00
25156;BME280;71253;51.496;7.606;2024-01-15T14:51:28;98737.78;;;-0.05;100.00
25156;BME280;71253;51.496;7.606;2024-01-15T14:56:29;98734.22;;;-0.13;100.00
25156;BME280;71253;51.496;7.606;2024-01-15T15:01:31;98751.13;;;-0.15;100.00
25156;BME280;71253;51.496;7.606;2024-01-15T15:06:33;98758.81;;;-0.12;100.00
25156;BME280;71253;51.496;7.606;2024-01-15T15:11:34;98757.13;;;-0.11;100.00
25156;BME280;71253;51.496;7.606;2024-01-15T15:16:36;98754.53;;;-0.13;100.00
25156;BME280;71253;51.496;7.606;2024-01-15T15:21:38;98780.94;;;-0.08;100.00
25156;BME280;71253;51.496;7.606;2024-01-15T15:26:39;98789.41;;;-0.09;100.00
25156;BME280;71253;51.496;7.606;2024-01-15T15:31:41;98813.94;;;-0.11;100.00
25156;BME280;71253;51.496;7.606;2024-01-15T15:36:42;98821.72;;;-0.03;100.00
25156;BME280;71253;51.496;7.606;2024-01-15T15:41:44;98814.81;;;-0.09;100.00
25156;BME280;71253;51.496;7.606;2024-01-15T15:46:46;98828.31;;;-0.11;100.00
25156;BME280;71253;51.496;7.606;2024-01-15T15:51:47;98838.44;;;-0.13;100.00
25156;BME280;71253;51.496;7.606;2024-01-15T15:56:49;98833.31;;;-0.16;100.00
25156;BME280;71253;51.496;7.606;2024-01-15T16:01:50;98842.63;;;-0.16;100.00
25156;BME280;71253;51.496;7.606;2024-01-15T16:06:52;98853.47;;;-0.22;100.00
25156;BME280;71253;51.496;7.606;2024-01-15T16:11:54;98859.28;;;-0.28;100.00
25156;BME280;71253;51.496;7.606;2024-01-15T16:16:55;98869.56;;;-0.23;100.00
25156;BME280;71253;51.496;7.606;2024-01-15T16:21:57;98869.84;;;-0.45;100.00
25156;BME280;71253;51.496;7.606;2024-01-15T16:27:18;98877.00;;;-0.65;100.00
25156;BME280;71253;51.496;7.606;2024-01-15T16:32:20;98882.72;;;-0.72;100.00
25156;BME280;71253;51.496;7.606;2024-01-15T16:37:21;98880.03;;;-0.77;100.00
25156;BME280;71253;51.496;7.606;2024-01-15T16:42:23;98890.19;;;-0.77;100.00
25156;BME280;71253;51.496;7.606;2024-01-15T16:47:24;98899.19;;;-0.90;100.00
25156;BME280;71253;51.496;7.606;2024-01-15T16:52:26;98905.84;;;-0.93;100.00
25156;BME280;71253;51.496;7.606;2024-01-15T16:57:28;98904.84;;;-0.98;100.00
25156;BME280;71253;51.496;7.606;2024-01-15T17:02:29;98911.63;;;-0.99;100.00
25156;BME280;71253;51.496;7.606;2024-01-15T17:07:31;98924.78;;;-0.82;100.00
25156;BME280;71253;51.496;7.606;2024-01-15T17:12:32;98919.94;;;-0.73;100.00
25156;BME280;71253;51.496;7.606;2024-01-15T17:17:34;98926.13;;;-0.65;100.00
25156;BME280;71253;51.496;7.606;2024-01-15T17:22:36;98941.56;;;-0.57;100.00
25156;BME280;71253;51.496;7.606;2024-01-15T17:27:38;98944.06;;;-0.59;100.00
25156;BME280;71253;51.496;7.606;2024-01-15T17:32:39;98943.38;;;-0.53;100.00
25156;BME280;71253;51.496;7.606;2024-01-15T17:37:41;98958.47;;;-0.58;100.00
25156;BME280;71253;51.496;7.606;2024-01-15T17:42:42;98949.22;;;-0.56;100.00
25156;BME280;71253;51.496;7.606;2024-01-15T17:47:44;98958.28;;;-0.65;100.00
25156;BME280;71253;51.496;7.606;2024-01-15T17:52:46;98960.75;;;-0.67;100.00
25156;BME280;71253;51.496;7.606;2024-01-15T17:57:47;98967.66;;;-0.63;100.00
25156;BME280;71253;51.496;7.606;2024-01-15T18:02:49;98961.69;;;-0.65;100.00
25156;BME280;71253;51.496;7.606;2024-01-15T18:07:51;98969.22;;;-0.68;100.00
25156;BME280;71253;51.496;7.606;2024-01-15T18:12:53;98956.59;;;-0.65;100.00
25156;BME280;71253;51.496;7.606;2024-01-15T18:17:54;98962.47;;;-0.66;100.00
25156;BME280;71253;51.496;7.606;2024-01-15T18:22:56;98968.59;;;-0.59;100.00
25156;BME280;71253;51.496;7.606;2024-01-15T18:27:57;98975.56;;;-0.52;100.00
25156;BME280;71253;51.496;7.606;2024-01-15T18:32:59;98988.28;;;-0.52;100.00
25156;BME280;71253;51.496;7.606;2024-01-15T18:38:01;99000.38;;;-0.43;100.00
25156;BME280;71253;51.496;7.606;2024-01-15T18:43:03;98996.34;;;-0.35;100.00
25156;BME280;71253;51.496;7.606;2024-01-15T18:48:04;99011.59;;;-0.35;100.00
25156;BME280;71253;51.496;7.606;2024-01-15T18:53:06;99010.72;;;-0.37;100.00
25156;BME280;71253;51.496;7.606;2024-01-15T18:58:08;99016.69;;;-0.35;100.00
25156;BME280;71253;51.496;7.606;2024-01-15T19:03:09;99022.63;;;-0.35;100.00
25156;BME280;71253;51.496;7.606;2024-01-15T19:08:11;99032.06;;;-0.31;100.00
25156;BME280;71253;51.496;7.606;2024-01-15T19:13:13;99041.53;;;-0.25;100.00
25156;BME280;71253;51.496;7.606;2024-01-15T19:18:14;99051.72;;;-0.23;100.00
25156;BME280;71253;51.496;7.606;2024-01-15T19:23:16;99059.31;;;-0.25;100.00
25156;BME280;71253;51.496;7.606;2024-01-15T19:28:17;99064.28;;;-0.30;100.00
25156;BME280;71253;51.496;7.606;2024-01-15T19:33:19;99070.94;;;-0.33;100.00
25156;BME280;71253;51.496;7.606;2024-01-15T19:38:21;99083.56;;;-0.38;100.00
25156;BME280;71253;51.496;7.606;2024-01-15T19:43:22;99088.69;;;-0.36;100.00
25156;BME280;71253;51.496;7.606;2024-01-15T19:48:24;99101.38;;;-0.36;100.00
25156;BME280;71253;51.496;7.606;2024-01-15T19:53:25;99105.78;;;-0.31;100.00
25156;BME280;71253;51.496;7.606;2024-01-15T19:58:27;99122.00;;;-0.27;100.00
25156;BME280;71253;51.496;7.606;2024-01-15T20:03:29;99125.44;;;-0.25;100.00
25156;BME280;71253;51.496;7.606;2024-01-15T20:08:33;99122.78;;;-0.28;100.00
25156;BME280;71253;51.496;7.606;2024-01-15T20:13:34;99127.75;;;-0.33;100.00
25156;BME280;71253;51.496;7.606;2024-01-15T20:18:36;99134.41;;;-0.38;100.00
25156;BME280;71253;51.496;7.606;2024-01-15T20:23:38;99135.28;;;-0.36;100.00
25156;BME280;71253;51.496;7.606;2024-01-15T20:28:41;99134.31;;;-0.39;100.00
25156;BME280;71253;51.496;7.606;2024-01-15T20:33:43;99141.06;;;-0.41;100.00
25156;BME280;71253;51.496;7.606;2024-01-15T20:38:47;99133.31;;;-0.44;100.00
25156;BME280;71253;51.496;7.606;2024-01-15T20:43:49;99140.09;;;-0.45;100.00
25156;BME280;71253;51.496;7.606;2024-01-15T20:48:50;99148.50;;;-0.47;100.00
25156;BME280;71253;51.496;7.606;2024-01-15T20:53:52;99146.69;;;-0.51;100.00
25156;BME280;71253;51.496;7.606;2024-01-15T20:58:54;99161.88;;;-0.53;100.00
25156;BME280;71253;51.496;7.606;2024-01-15T21:03:55;99166.97;;;-0.53;100.00
25156;BME280;71253;51.496;7.606;2024-01-15T21:08:57;99160.91;;;-0.57;100.00
25156;BME280;71253;51.496;7.606;2024-01-15T21:14:02;99177.72;;;-0.62;100.00
25156;BME280;71253;51.496;7.606;2024-01-15T21:19:03;99187.03;;;-0.61;100.00
25156;BME280;71253;51.496;7.606;2024-01-15T21:24:05;99191.03;;;-0.69;100.00
25156;BME280;71253;51.496;7.606;2024-01-15T21:29:07;99183.47;;;-0.67;100.00
25156;BME280;71253;51.496;7.606;2024-01-15T21:34:08;99194.41;;;-0.70;100.00
25156;BME280;71253;51.496;7.606;2024-01-15T21:39:10;99193.53;;;-0.70;100.00
25156;BME280;71253;51.496;7.606;2024-01-15T21:44:12;99206.25;;;-0.70;100.00
25156;BME280;71253;51.496;7.606;2024-01-15T21:49:14;99203.78;;;-0.67;100.00
25156;BME280;71253;51.496;7.606;2024-01-15T21:54:16;99198.84;;;-0.63;100.00
25156;BME280;71253;51.496;7.606;2024-01-15T21:59:17;99214.13;;;-0.61;100.00
25156;BME280;71253;51.496;7.606;2024-01-15T22:04:19;99223.44;;;-0.62;100.00
25156;BME280;71253;51.496;7.606;2024-01-15T22:09:20;99223.44;;;-0.62;100.00
25156;BME280;71253;51.496;7.606;2024-01-15T22:14:22;99245.47;;;-0.61;100.00
25156;BME280;71253;51.496;7.606;2024-01-15T22:19:24;99251.38;;;-0.62;100.00
25156;BME280;71253;51.496;7.606;2024-01-15T22:24:25;99258.97;;;-0.63;100.00
25156;BME280;71253;51.496;7.606;2024-01-15T22:29:27;99259.03;;;-0.60;100.00
25156;BME280;71253;51.496;7.606;2024-01-15T22:34:28;99261.56;;;-0.62;100.00
25156;BME280;71253;51.496;7.606;2024-01-15T22:39:30;99260.69;;;-0.62;100.00
25156;BME280;71253;51.496;7.606;2024-01-15T22:44:31;99283.50;;;-0.64;100.00
25156;BME280;71253;51.496;7.606;2024-01-15T22:49:33;99281.06;;;-0.61;100.00
25156;BME280;71253;51.496;7.606;2024-01-15T22:54:35;99287.78;;;-0.63;100.00
25156;BME280;71253;51.496;7.606;2024-01-15T22:59:36;99294.41;;;-0.66;100.00
25156;BME280;71253;51.496;7.606;2024-01-15T23:04:38;99296.22;;;-0.64;100.00
25156;BME280;71253;51.496;7.606;2024-01-15T23:09:40;99301.97;;;-0.69;100.00
25156;BME280;71253;51.496;7.606;2024-01-15T23:14:44;99303.66;;;-0.70;100.00
25156;BME280;71253;51.496;7.606;2024-01-15T23:19:46;99305.97;;;-0.76;100.00
25156;BME280;71253;51.496;7.606;2024-01-15T23:24:47;99312.63;;;-0.80;100.00
25156;BME280;71253;51.496;7.606;2024-01-15T23:29:49;99312.50;;;-0.83;100.00
25156;BME280;71253;51.496;7.606;2024-01-15T23:34:50;99326.84;;;-0.85;100.00
25156;BME280;71253;51.496;7.606;2024-01-15T23:39:52;99324.31;;;-0.85;100.00
25156;BME280;71253;51.496;7.606;2024-01-15T23:44:53;99338.00;;;-0.81;100.00
25156;BME280;71253;51.496;7.606;2024-01-15T23:49:55;99337.16;;;-0.80;100.00
25156;BME280;71253;51.496;7.606;2024-01-15T23:54:56;99339.75;;;-0.78;100.00
25156;BME280;71253;51.496;7.606;2024-01-15T23:59:58;99331.38;;;-0.76;100.00
